Time;durP1;ratioP1;P1;durP2;ratioP2;P2;SDS_P1;SDS_P2;PMS_P1;PMS_P2;Temp;Humidity;BMP_temperature;BMP_pressure;BME280_temperature;BME280_humidity;BME280_pressure;Samples;Min_cycle;Max_cycle;Signal;HPM_P1;HPM_P2
2022/03/22 00:00:29;;;;;;;23.63;19.70;;;8.40;99.90;;;;;;5032069;28;20207;-64
2022/03/22 00:02:55;;;;;;;23.73;19.80;;;8.40;99.90;;;;;;5031953;28;20226;-65
2022/03/22 00:05:21;;;;;;;24.37;20.37;;;8.30;99.90;;;;;;5030837;28;20605;-66
2022/03/22 00:07:47;;;;;;;24.33;20.47;;;8.20;99.90;;;;;;5031634;28;20171;-66
2022/03/22 00:10:14;;;;;;;25.93;21.50;;;8.20;99.90;;;;;;5032132;28;20572;-65
2022/03/22 00:12:40;;;;;;;23.63;20.37;;;8.10;99.90;;;;;;5031710;28;20186;-66
2022/03/22 00:15:08;;;;;;;25.00;20.03;;;8.00;99.90;;;;;;5031192;28;20200;-65
2022/03/22 00:17:34;;;;;;;25.50;19.80;;;8.00;99.90;;;;;;5031101;28;20183;-65
2022/03/22 00:20:00;;;;;;;27.40;20.70;;;8.00;99.90;;;;;;5031849;28;20207;-66
2022/03/22 00:22:27;;;;;;;27.43;20.00;;;7.90;99.90;;;;;;5031664;28;20531;-66
2022/03/22 00:24:53;;;;;;;25.57;20.13;;;7.90;99.90;;;;;;5031066;28;20188;-66
2022/03/22 00:27:18;;;;;;;26.27;20.13;;;7.80;99.90;;;;;;5031123;28;20190;-66
2022/03/22 00:29:44;;;;;;;26.40;20.83;;;7.80;99.90;;;;;;5031503;28;20195;-65
2022/03/22 00:32:10;;;;;;;28.50;20.73;;;7.80;99.90;;;;;;5031430;28;20176;-66
2022/03/22 00:34:44;;;;;;;29.10;22.50;;;7.70;99.90;;;;;;5031264;28;20237;-66
2022/03/22 00:37:13;;;;;;;28.20;20.93;;;7.70;99.90;;;;;;5031326;28;20179;-66
2022/03/22 00:39:39;;;;;;;27.07;21.73;;;7.60;99.90;;;;;;5031670;28;20568;-66
2022/03/22 00:42:05;;;;;;;30.50;21.00;;;7.60;99.90;;;;;;5013615;28;20176;-66
2022/03/22 00:44:30;;;;;;;26.20;19.67;;;7.60;99.90;;;;;;5031022;28;20175;-66
2022/03/22 00:46:56;;;;;;;25.10;20.83;;;7.60;99.90;;;;;;5031426;28;20206;-65
2022/03/22 00:49:22;;;;;;;35.63;21.90;;;7.50;99.90;;;;;;5031384;28;20221;-65
2022/03/22 00:51:47;;;;;;;24.03;19.90;;;7.60;99.90;;;;;;5031019;28;20184;-65
2022/03/22 00:54:13;;;;;;;27.87;21.23;;;7.60;99.90;;;;;;5029986;28;20613;-65
2022/03/22 00:56:39;;;;;;;31.43;19.73;;;7.60;99.90;;;;;;5032251;28;20257;-65
2022/03/22 01:01:49;;;;;;;30.40;22.03;;;7.60;99.90;;;;;;5034185;28;20198;-66
2022/03/22 01:04:15;;;;;;;28.57;21.00;;;7.60;99.90;;;;;;5035210;28;20179;-65
2022/03/22 01:06:41;;;;;;;28.87;20.83;;;7.50;99.90;;;;;;5035617;28;20195;-65
2022/03/22 01:09:06;;;;;;;27.73;20.80;;;7.40;99.90;;;;;;5034408;28;20187;-65
2022/03/22 01:11:32;;;;;;;28.90;20.93;;;7.40;99.90;;;;;;5035247;28;20523;-64
2022/03/22 01:13:58;;;;;;;31.30;22.33;;;7.30;99.90;;;;;;5034901;28;20290;-66
2022/03/22 01:16:23;;;;;;;25.83;20.43;;;7.30;99.90;;;;;;5034630;28;20199;-66
2022/03/22 01:18:49;;;;;;;27.87;22.73;;;7.30;99.90;;;;;;5034922;28;20178;-66
2022/03/22 01:21:14;;;;;;;26.60;20.93;;;7.20;99.90;;;;;;5034835;28;20210;-64
2022/03/22 01:23:40;;;;;;;27.73;21.60;;;7.30;99.90;;;;;;5034424;28;20188;-65
2022/03/22 01:26:06;;;;;;;26.60;21.13;;;7.30;99.90;;;;;;5034096;28;20231;-66
2022/03/22 01:28:31;;;;;;;28.57;21.93;;;7.20;99.90;;;;;;5035095;28;20658;-65
2022/03/22 01:30:57;;;;;;;27.07;21.27;;;7.30;99.90;;;;;;5034715;28;20532;-64
2022/03/22 01:33:23;;;;;;;25.83;20.77;;;7.20;99.90;;;;;;5035801;28;20210;-64
2022/03/22 01:35:48;;;;;;;24.70;20.63;;;7.20;99.90;;;;;;5035334;28;20597;-65
2022/03/22 01:38:14;;;;;;;27.87;21.63;;;7.30;99.90;;;;;;5035000;28;20179;-66
2022/03/22 01:40:40;;;;;;;25.40;21.27;;;7.20;99.90;;;;;;5034638;28;20171;-65
2022/03/22 01:43:05;;;;;;;28.07;21.63;;;7.20;99.90;;;;;;5034381;28;20185;-65
2022/03/22 01:45:31;;;;;;;26.43;21.57;;;7.20;99.90;;;;;;5034691;28;20241;-65
2022/03/22 01:48:02;;;;;;;30.30;21.73;;;7.20;99.90;;;;;;5034648;28;20179;-65
2022/03/22 01:50:29;;;;;;;27.47;21.53;;;7.20;99.90;;;;;;5034657;28;20575;-63
2022/03/22 01:52:57;;;;;;;24.23;20.77;;;7.10;99.90;;;;;;5034607;28;20202;-63
2022/03/22 01:55:23;;;;;;;27.00;22.67;;;7.10;99.90;;;;;;5034298;28;20215;-64
2022/03/22 01:57:49;;;;;;;25.20;21.53;;;7.00;99.90;;;;;;5034308;28;20565;-65
2022/03/22 02:00:18;;;;;;;30.23;22.43;;;7.10;99.90;;;;;;5034820;28;20355;-65
2022/03/22 02:05:57;;;;;;;25.87;21.53;;;7.00;99.90;;;;;;5034573;28;20207;-65
2022/03/22 02:08:30;;;;;;;33.43;23.73;;;6.90;99.90;;;;;;5041585;28;20235;-65
2022/03/22 02:10:59;;;;;;;29.43;23.43;;;6.90;99.90;;;;;;5047243;28;20602;-65
2022/03/22 02:13:25;;;;;;;25.73;22.13;;;6.90;99.90;;;;;;5044062;28;20202;-65
2022/03/22 02:15:56;;;;;;;26.30;21.87;;;6.90;99.90;;;;;;5043843;28;20662;-64
2022/03/22 02:18:21;;;;;;;31.53;19.63;;;6.90;99.90;;;;;;5045503;28;20568;-65
2022/03/22 02:20:47;;;;;;;24.73;20.20;;;7.00;99.90;;;;;;5042412;28;20172;-65
2022/03/22 02:24:07;;;;;;;27.27;20.20;;;7.00;99.90;;;;;;5045361;28;20167;-65
2022/03/22 02:26:33;;;;;;;24.20;18.70;;;7.00;99.90;;;;;;5003490;28;20211;-64
2022/03/22 02:28:59;;;;;;;25.03;19.07;;;7.00;99.90;;;;;;5036935;28;20748;-65
2022/03/22 02:31:31;;;;;;;29.43;19.60;;;6.90;99.90;;;;;;5036835;28;20257;-65
2022/03/22 02:33:57;;;;;;;27.07;20.10;;;6.90;99.90;;;;;;5034003;28;20545;-66
2022/03/22 02:36:23;;;;;;;27.87;20.13;;;6.90;99.90;;;;;;5033560;28;20195;-64
2022/03/22 02:38:49;;;;;;;22.53;19.63;;;6.90;99.90;;;;;;5033994;28;20663;-64
2022/03/22 02:41:20;;;;;;;23.37;20.87;;;6.90;99.90;;;;;;5033248;28;20650;-64
2022/03/22 02:43:47;;;;;;;28.83;20.43;;;6.90;99.90;;;;;;5033590;28;20168;-65
2022/03/22 02:46:12;;;;;;;27.67;19.60;;;6.90;99.90;;;;;;5012164;28;20639;-64
2022/03/22 02:48:38;;;;;;;23.90;18.57;;;6.90;99.90;;;;;;4996283;28;20263;-65
2022/03/22 02:51:04;;;;;;;23.60;19.83;;;7.00;99.90;;;;;;5027216;28;20184;-64
2022/03/22 02:53:30;;;;;;;31.03;19.37;;;7.00;99.90;;;;;;5033227;28;20191;-65
2022/03/22 02:55:56;;;;;;;29.87;19.63;;;6.90;99.90;;;;;;5032994;28;20215;-66
2022/03/22 02:58:21;;;;;;;22.87;18.83;;;6.90;99.90;;;;;;5033665;28;20175;-65
2022/03/22 03:00:47;;;;;;;23.60;18.63;;;6.90;99.90;;;;;;5033874;28;20180;-64
2022/03/22 03:03:12;;;;;;;28.73;19.90;;;6.90;99.90;;;;;;5033245;28;20780;-64
2022/03/22 03:05:38;;;;;;;26.03;21.43;;;7.00;99.90;;;;;;5033055;28;20241;-65
2022/03/22 03:08:04;;;;;;;27.53;22.37;;;7.00;99.90;;;;;;5034307;28;20171;-64
2022/03/22 03:10:30;;;;;;;30.17;21.53;;;7.00;99.90;;;;;;5040331;28;20175;-65
2022/03/22 03:13:04;;;;;;;24.60;19.57;;;7.00;99.90;;;;;;5045931;28;20172;-65
2022/03/22 03:15:31;;;;;;;25.77;19.43;;;7.00;99.90;;;;;;5045217;28;20198;-64
2022/03/22 03:17:57;;;;;;;25.13;19.67;;;7.00;99.90;;;;;;5035867;28;20175;-63
2022/03/22 03:20:23;;;;;;;28.07;19.97;;;7.00;99.90;;;;;;5034301;28;20259;-64
2022/03/22 03:22:49;;;;;;;27.07;18.00;;;7.00;99.90;;;;;;5034707;28;20616;-63
2022/03/22 03:25:14;;;;;;;25.50;18.67;;;7.00;99.90;;;;;;5015196;28;20226;-64
2022/03/22 03:27:40;;;;;;;22.77;18.60;;;7.00;99.90;;;;;;5033307;28;20203;-64
2022/03/22 03:30:08;;;;;;;22.80;18.03;;;6.90;99.90;;;;;;5033204;28;20202;-64
2022/03/22 03:32:34;;;;;;;28.03;20.67;;;6.80;99.90;;;;;;5032534;28;20659;-65
2022/03/22 03:35:00;;;;;;;29.47;19.90;;;6.70;99.90;;;;;;5032183;28;20199;-64
2022/03/22 03:37:29;;;;;;;33.50;20.80;;;6.70;99.90;;;;;;5032809;28;20654;-64
2022/03/22 03:39:55;;;;;;;28.53;20.17;;;6.70;99.90;;;;;;5032819;28;20167;-65
2022/03/22 03:42:20;;;;;;;28.73;19.57;;;6.70;99.90;;;;;;5032674;28;20551;-64
2022/03/22 03:47:30;;;;;;;27.57;18.50;;;6.70;99.90;;;;;;5031962;28;20182;-66
2022/03/22 03:50:01;;;;;;;27.43;20.17;;;6.70;99.90;;;;;;5013819;28;20183;-66
2022/03/22 03:52:29;;;;;;;25.90;19.10;;;6.70;99.90;;;;;;5032820;28;20590;-64
2022/03/22 03:54:55;;;;;;;24.87;19.17;;;6.70;99.90;;;;;;5010696;28;20214;-65
2022/03/22 03:59:50;;;;;;;23.77;19.07;;;6.60;99.90;;;;;;5069977;28;20220;-69
2022/03/22 04:02:16;;;;;;;31.73;22.20;;;6.60;99.90;;;;;;5071943;28;20710;-68
2022/03/22 04:04:42;;;;;;;23.20;19.70;;;6.60;99.90;;;;;;5069290;28;20228;-69
2022/03/22 04:07:10;;;;;;;27.80;19.30;;;6.50;99.90;;;;;;5053359;28;20195;-68
2022/03/22 04:09:38;;;;;;;26.97;18.67;;;6.50;99.90;;;;;;5053156;28;20187;-67
2022/03/22 04:12:05;;;;;;;21.30;18.40;;;6.60;99.90;;;;;;5052819;28;20230;-69
2022/03/22 04:14:31;;;;;;;20.53;17.60;;;6.50;99.90;;;;;;5051786;28;20205;-70
2022/03/22 04:16:56;;;;;;;21.90;16.90;;;6.50;99.90;;;;;;5069395;28;20190;-70
2022/03/22 04:19:23;;;;;;;20.17;17.13;;;6.50;99.90;;;;;;5057472;28;20204;-70
2022/03/22 04:21:48;;;;;;;23.73;18.10;;;6.50;99.90;;;;;;5051550;28;20560;-68
2022/03/22 04:24:14;;;;;;;21.30;17.77;;;6.50;99.90;;;;;;5066634;28;20653;-69
2022/03/22 04:26:44;;;;;;;21.43;19.17;;;6.50;99.90;;;;;;5072304;28;20201;-69
2022/03/22 04:34:42;;;;;;;24.80;17.70;;;6.30;99.90;;;;;;5055949;28;20212;-69
2022/03/22 04:37:10;;;;;;;28.77;18.23;;;6.30;99.90;;;;;;5073000;28;20200;-69
2022/03/22 04:39:36;;;;;;;21.07;17.30;;;6.20;99.90;;;;;;5069682;28;20177;-66
2022/03/22 04:42:02;;;;;;;25.60;19.70;;;6.10;99.90;;;;;;5068311;28;20175;-69
2022/03/22 04:44:29;;;;;;;26.60;20.87;;;6.00;99.90;;;;;;5052411;28;20171;-69
2022/03/22 04:46:56;;;;;;;22.23;18.63;;;5.90;99.90;;;;;;5071103;28;20564;-67
2022/03/22 04:49:22;;;;;;;23.53;19.20;;;5.90;99.90;;;;;;5071056;28;20189;-69
2022/03/22 04:57:18;;;;;;;24.07;18.27;;;5.90;99.90;;;;;;5057944;28;20228;-65
2022/03/22 04:59:43;;;;;;;21.87;17.20;;;5.90;99.90;;;;;;5071352;28;20221;-65
2022/03/22 05:02:11;;;;;;;22.87;18.00;;;5.90;99.90;;;;;;5066664;28;20202;-65
2022/03/22 05:04:37;;;;;;;20.97;16.57;;;6.00;99.90;;;;;;5050301;28;20198;-64
2022/03/22 05:07:03;;;;;;;21.97;17.83;;;6.00;99.90;;;;;;5054849;28;20201;-67
2022/03/22 05:09:29;;;;;;;21.70;16.90;;;6.00;99.90;;;;;;5071442;28;20220;-65
2022/03/22 05:12:00;;;;;;;20.07;17.13;;;6.10;99.90;;;;;;5086384;28;20167;-65
2022/03/22 05:14:25;;;;;;;20.57;16.93;;;6.10;99.90;;;;;;5086563;28;20208;-65
2022/03/22 05:16:51;;;;;;;21.37;16.23;;;6.20;99.90;;;;;;5068943;28;20189;-66
2022/03/22 05:19:20;;;;;;;20.23;16.43;;;6.20;99.90;;;;;;5050491;28;20325;-64
2022/03/22 05:21:46;;;;;;;22.17;17.57;;;6.30;99.90;;;;;;5062707;28;20189;-64
2022/03/22 05:24:12;;;;;;;24.27;17.67;;;6.30;99.90;;;;;;5070513;28;20178;-64
2022/03/22 05:26:38;;;;;;;19.53;17.37;;;6.30;99.90;;;;;;5075888;28;20217;-64
2022/03/22 05:29:05;;;;;;;24.27;18.60;;;6.20;99.90;;;;;;5051927;28;20162;-65
2022/03/22 05:31:32;;;;;;;20.80;17.33;;;6.20;99.90;;;;;;5057189;28;20178;-64
2022/03/22 05:34:01;;;;;;;21.10;18.27;;;6.20;99.90;;;;;;5070921;28;20247;-64
2022/03/22 05:36:27;;;;;;;19.97;17.63;;;6.20;99.90;;;;;;5066105;28;20221;-64
2022/03/22 05:38:53;;;;;;;23.70;17.93;;;6.20;99.90;;;;;;5069781;28;20202;-64
2022/03/22 05:41:20;;;;;;;18.87;16.63;;;6.20;99.90;;;;;;5070981;28;20201;-64
2022/03/22 05:43:47;;;;;;;19.77;17.67;;;6.20;99.90;;;;;;5056025;28;20268;-64
2022/03/22 05:46:15;;;;;;;19.93;16.83;;;6.20;99.90;;;;;;5054236;28;20187;-64
2022/03/22 05:48:41;;;;;;;18.97;16.23;;;6.30;99.90;;;;;;5068411;28;20656;-64
2022/03/22 05:51:06;;;;;;;23.40;17.23;;;6.40;99.90;;;;;;5074425;28;20213;-64
2022/03/22 05:53:32;;;;;;;21.00;16.70;;;6.50;99.90;;;;;;5059680;28;20646;-64
2022/03/22 05:55:58;;;;;;;20.47;15.83;;;6.60;99.90;;;;;;5053518;28;20245;-64
2022/03/22 05:58:24;;;;;;;18.10;16.23;;;6.60;99.90;;;;;;5067020;28;20193;-64
2022/03/22 06:00:49;;;;;;;20.67;15.53;;;6.70;99.90;;;;;;5072616;28;20641;-63
2022/03/22 06:03:15;;;;;;;21.03;17.70;;;6.80;99.90;;;;;;5069052;28;20178;-64
2022/03/22 06:05:42;;;;;;;19.23;15.87;;;6.90;99.90;;;;;;5073029;28;20265;-64
2022/03/22 06:08:08;;;;;;;17.73;15.37;;;7.00;99.90;;;;;;5053541;28;20652;-64
2022/03/22 06:10:34;;;;;;;23.47;16.90;;;7.00;99.90;;;;;;5054021;28;20202;-64
2022/03/22 06:13:00;;;;;;;23.53;16.20;;;7.10;99.90;;;;;;5072223;28;20201;-64
2022/03/22 06:15:30;;;;;;;22.23;15.83;;;7.20;99.90;;;;;;5073678;28;20284;-64
2022/03/22 06:18:04;;;;;;;21.73;15.57;;;7.30;99.90;;;;;;5056497;28;20460;-64
2022/03/22 06:20:32;;;;;;;21.37;17.53;;;7.30;99.90;;;;;;5072464;28;20209;-64
2022/03/22 06:22:59;;;;;;;21.93;15.90;;;7.30;99.90;;;;;;5057105;28;20178;-64
2022/03/22 06:25:25;;;;;;;20.60;15.33;;;7.40;99.90;;;;;;5053271;28;20224;-64
2022/03/22 06:27:52;;;;;;;18.23;15.37;;;7.50;99.90;;;;;;5067963;28;20277;-64
2022/03/22 06:30:18;;;;;;;19.50;15.87;;;7.50;99.90;;;;;;5073705;28;20170;-64
2022/03/22 06:32:56;;;;;;;17.77;14.57;;;7.60;99.90;;;;;;5060002;28;20190;-65
2022/03/22 06:35:24;;;;;;;20.20;15.90;;;7.60;99.90;;;;;;5057982;28;20233;-64
2022/03/22 06:37:51;;;;;;;20.17;14.87;;;7.70;99.90;;;;;;5073423;28;20174;-64
2022/03/22 06:40:19;;;;;;;18.03;15.73;;;7.80;99.90;;;;;;5069891;28;20662;-64
2022/03/22 06:42:46;;;;;;;18.43;16.17;;;7.90;99.90;;;;;;5068780;28;20255;-64
2022/03/22 06:45:12;;;;;;;16.90;15.20;;;7.90;99.90;;;;;;5070772;28;20174;-64
2022/03/22 06:47:41;;;;;;;17.77;15.30;;;8.00;99.90;;;;;;5061473;28;20202;-64
2022/03/22 06:50:08;;;;;;;16.10;14.30;;;8.10;99.90;;;;;;5072169;28;20201;-64
2022/03/22 06:52:35;;;;;;;17.33;15.10;;;8.30;99.90;;;;;;5071693;28;20710;-64
2022/03/22 06:55:00;;;;;;;16.47;14.80;;;8.40;99.90;;;;;;5067194;28;20209;-64
2022/03/22 06:57:28;;;;;;;15.87;14.20;;;8.70;99.90;;;;;;5072922;28;20664;-64
2022/03/22 06:59:54;;;;;;;16.40;14.70;;;9.20;99.90;;;;;;5072366;28;20178;-64
2022/03/22 07:02:20;;;;;;;20.30;15.60;;;9.60;99.90;;;;;;5053199;28;20171;-64
2022/03/22 07:04:46;;;;;;;16.97;14.40;;;10.10;99.90;;;;;;5060103;28;20193;-64
2022/03/22 07:07:12;;;;;;;19.03;14.53;;;10.50;99.90;;;;;;5072824;28;20677;-64
2022/03/22 07:09:38;;;;;;;20.60;14.63;;;10.70;99.90;;;;;;5066131;28;20183;-64
2022/03/22 07:12:04;;;;;;;18.87;14.70;;;11.10;99.90;;;;;;5052424;28;20237;-64
2022/03/22 07:14:29;;;;;;;16.57;14.23;;;11.40;99.90;;;;;;5056060;28;20677;-65
2022/03/22 07:16:55;;;;;;;18.87;14.67;;;11.70;99.90;;;;;;5057541;28;20658;-64
2022/03/22 07:19:23;;;;;;;14.93;13.47;;;11.90;99.90;;;;;;5054276;28;20166;-64
2022/03/22 07:21:49;;;;;;;16.53;13.60;;;12.10;99.90;;;;;;5064805;28;20262;-64
2022/03/22 07:24:19;;;;;;;17.73;15.53;;;12.30;99.90;;;;;;5052486;28;20183;-64
2022/03/22 07:26:46;;;;;;;17.53;13.67;;;12.50;99.90;;;;;;5071999;28;20194;-64
2022/03/22 07:29:13;;;;;;;17.90;14.03;;;12.60;99.90;;;;;;5071313;28;20171;-64
2022/03/22 07:31:40;;;;;;;18.30;14.20;;;12.80;99.90;;;;;;5071418;28;20260;-65
2022/03/22 07:34:11;;;;;;;17.03;13.63;;;12.90;99.90;;;;;;5061693;28;20206;-64
2022/03/22 07:36:40;;;;;;;16.70;14.90;;;13.10;99.90;;;;;;5050477;28;20195;-64
2022/03/22 07:39:10;;;;;;;15.30;13.70;;;13.30;99.90;;;;;;5061330;28;20197;-64
2022/03/22 07:41:36;;;;;;;18.33;14.03;;;13.40;99.90;;;;;;5067306;28;20671;-65
2022/03/22 07:44:03;;;;;;;21.37;15.13;;;13.50;99.90;;;;;;5072111;28;20181;-65
2022/03/22 07:46:29;;;;;;;18.47;14.33;;;13.60;99.90;;;;;;5065084;28;20205;-65
2022/03/22 07:48:55;;;;;;;16.83;13.93;;;13.90;99.90;;;;;;5051878;28;20170;-65
2022/03/22 07:54:05;;;;;;;18.73;13.23;;;14.10;99.00;;;;;;5053148;28;20205;-65
2022/03/22 07:56:30;;;;;;;15.40;13.90;;;14.20;99.40;;;;;;5071119;28;20277;-65
2022/03/22 07:58:57;;;;;;;16.70;13.60;;;14.50;99.10;;;;;;5072058;28;20174;-65
2022/03/22 08:01:24;;;;;;;14.87;13.27;;;14.70;99.10;;;;;;5064333;28;20182;-65
2022/03/22 08:03:50;;;;;;;16.97;13.80;;;15.00;98.40;;;;;;5070925;28;20174;-65
2022/03/22 08:06:16;;;;;;;17.10;13.73;;;15.30;97.70;;;;;;5087429;28;20202;-64
2022/03/22 08:08:44;;;;;;;15.13;13.47;;;15.50;96.30;;;;;;5076668;28;20652;-65
2022/03/22 08:11:10;;;;;;;14.97;13.43;;;15.60;94.20;;;;;;5070763;28;20186;-64
2022/03/22 08:13:37;;;;;;;19.23;15.47;;;15.70;93.70;;;;;;5071559;28;20285;-64
2022/03/22 08:16:04;;;;;;;16.83;13.97;;;15.90;93.50;;;;;;5056101;28;20202;-65
2022/03/22 08:18:30;;;;;;;17.23;14.23;;;16.10;92.50;;;;;;5071041;28;20182;-65
2022/03/22 08:20:56;;;;;;;20.70;13.73;;;16.20;91.60;;;;;;5066584;28;20202;-64
2022/03/22 08:23:21;;;;;;;15.07;13.47;;;16.30;90.90;;;;;;5069130;28;20174;-65
2022/03/22 08:25:49;;;;;;;17.13;13.60;;;16.40;91.40;;;;;;5068628;28;20565;-65
2022/03/22 08:28:16;;;;;;;15.87;14.27;;;16.60;90.50;;;;;;5051518;28;20519;-65
2022/03/22 08:30:42;;;;;;;21.77;13.83;;;16.80;88.70;;;;;;5054534;28;20174;-65
2022/03/22 08:33:09;;;;;;;14.97;12.83;;;17.00;90.30;;;;;;5051487;28;20262;-65
2022/03/22 08:35:38;;;;;;;15.20;13.57;;;17.40;90.10;;;;;;5062894;28;20204;-65
2022/03/22 08:38:03;;;;;;;21.25;13.93;;;17.70;89.20;;;;;;5071404;28;20178;-65
2022/03/22 08:40:29;;;;;;;15.35;13.45;;;17.90;85.20;;;;;;5070136;28;20545;-62
2022/03/22 08:42:57;;;;;;;14.70;13.07;;;17.90;82.70;;;;;;5071119;28;20171;-65
2022/03/22 08:45:24;;;;;;;16.67;13.57;;;18.00;83.30;;;;;;5061622;28;20220;-65
2022/03/22 08:47:52;;;;;;;14.93;13.13;;;18.10;82.90;;;;;;5050886;28;20179;-63
2022/03/22 08:50:20;;;;;;;14.67;13.00;;;18.40;80.20;;;;;;5058425;28;20181;-63
2022/03/22 08:52:48;;;;;;;17.23;12.83;;;18.70;79.50;;;;;;5070634;28;20185;-63
2022/03/22 08:55:16;;;;;;;15.23;13.37;;;18.80;76.80;;;;;;5056240;28;20210;-66
2022/03/22 08:57:44;;;;;;;15.30;12.90;;;18.80;76.80;;;;;;5050695;28;20174;-63
2022/03/22 09:00:11;;;;;;;15.27;12.67;;;18.70;76.10;;;;;;5063711;28;20196;-64
2022/03/22 09:02:37;;;;;;;15.18;13.55;;;18.70;76.50;;;;;;5070670;28;20299;-63
2022/03/22 09:07:48;;;;;;;17.87;13.20;;;18.90;74.30;;;;;;5057197;28;20225;-63
2022/03/22 09:10:14;;;;;;;14.88;13.43;;;19.00;73.80;;;;;;5050684;28;20179;-63
2022/03/22 09:12:42;;;;;;;15.83;14.20;;;19.00;71.60;;;;;;5061567;28;20185;-63
2022/03/22 09:15:09;;;;;;;14.10;12.60;;;19.00;70.70;;;;;;5070570;28;20205;-63
2022/03/22 09:17:35;;;;;;;13.60;12.20;;;19.00;71.40;;;;;;5058781;28;20194;-63
2022/03/22 09:20:01;;;;;;;16.98;12.93;;;19.40;74.00;;;;;;5053785;28;20512;-63
2022/03/22 09:22:27;;;;;;;14.50;12.65;;;19.90;72.40;;;;;;5074208;28;20189;-63
2022/03/22 09:24:53;;;;;;;14.43;12.93;;;20.10;71.20;;;;;;5072773;28;20602;-63
2022/03/22 09:27:18;;;;;;;15.73;13.20;;;20.40;70.40;;;;;;5074742;28;20563;-63
2022/03/22 09:29:44;;;;;;;14.18;12.18;;;20.70;67.60;;;;;;5067361;28;20179;-63
2022/03/22 09:32:10;;;;;;;14.35;12.93;;;21.00;66.90;;;;;;5054693;28;20270;-63
2022/03/22 09:34:36;;;;;;;14.25;12.77;;;21.10;68.20;;;;;;5058770;28;20205;-63
2022/03/22 09:37:01;;;;;;;14.73;12.93;;;21.00;63.40;;;;;;5073869;28;20269;-63
2022/03/22 09:39:27;;;;;;;14.95;12.30;;;21.10;67.90;;;;;;5070330;28;20167;-63
2022/03/22 09:41:53;;;;;;;14.05;12.55;;;21.40;66.90;;;;;;5054197;28;20167;-63
2022/03/22 09:44:19;;;;;;;16.83;12.93;;;21.40;62.60;;;;;;5063381;28;20273;-64
2022/03/22 09:46:48;;;;;;;15.20;12.63;;;21.70;60.40;;;;;;5074217;28;20202;-63
2022/03/22 09:49:16;;;;;;;13.40;11.85;;;21.60;60.10;;;;;;5059187;28;20716;-63
2022/03/22 09:51:45;;;;;;;14.13;12.63;;;21.60;57.40;;;;;;5053679;28;20634;-63
2022/03/22 09:54:12;;;;;;;14.68;12.27;;;21.30;58.10;;;;;;5068080;28;20229;-63
2022/03/22 09:56:42;;;;;;;12.80;11.50;;;21.40;58.30;;;;;;5073813;28;20412;-63
2022/03/22 10:01:37;;;;;;;16.00;12.75;;;21.80;57.20;;;;;;5032737;28;20219;-66
2022/03/22 10:04:09;;;;;;;12.50;11.18;;;22.00;56.00;;;;;;5034327;28;20188;-66
2022/03/22 10:06:35;;;;;;;12.20;11.13;;;22.20;54.90;;;;;;5026757;28;20176;-63
2022/03/22 10:09:04;;;;;;;13.45;12.05;;;22.20;53.30;;;;;;5014946;28;20200;-64
2022/03/22 10:11:39;;;;;;;13.63;12.02;;;21.90;51.10;;;;;;5014493;28;20235;-65
2022/03/22 10:14:08;;;;;;;14.25;11.98;;;21.70;53.50;;;;;;5015292;28;20233;-64
2022/03/22 10:16:45;;;;;;;12.43;11.32;;;21.80;54.20;;;;;;5021675;28;20171;-65
2022/03/22 10:19:24;;;;;;;12.85;11.60;;;21.80;52.50;;;;;;5034123;28;20194;-67
2022/03/22 10:21:53;;;;;;;14.07;12.70;;;21.90;54.00;;;;;;5026203;28;20186;-65
2022/03/22 10:24:19;;;;;;;13.20;11.40;;;22.20;54.70;;;;;;5013998;28;20169;-65
2022/03/22 10:26:46;;;;;;;14.18;12.70;;;22.30;50.00;;;;;;5021042;28;20179;-65
2022/03/22 10:29:13;;;;;;;12.85;11.52;;;22.10;50.90;;;;;;5036301;28;20200;-65
2022/03/22 10:31:40;;;;;;;14.15;12.07;;;22.30;49.90;;;;;;5023404;28;20702;-65
2022/03/22 10:34:07;;;;;;;13.85;11.35;;;22.50;51.20;;;;;;5024800;28;20291;-65
2022/03/22 10:36:36;;;;;;;13.70;11.07;;;22.80;52.40;;;;;;5043393;28;20171;-65
2022/03/22 10:39:05;;;;;;;12.48;11.23;;;22.80;48.00;;;;;;5042442;28;20199;-65
2022/03/22 10:41:33;;;;;;;13.73;11.05;;;22.80;48.40;;;;;;5026645;28;20223;-65
2022/03/22 10:44:07;;;;;;;12.20;10.93;;;22.70;48.00;;;;;;5028371;28;20179;-63
2022/03/22 10:46:35;;;;;;;12.55;11.25;;;22.80;47.90;;;;;;5025680;28;20191;-64
2022/03/22 10:49:06;;;;;;;15.65;11.57;;;22.70;47.40;;;;;;5033483;28;20282;-64
2022/03/22 10:51:46;;;;;;;13.45;12.05;;;22.60;47.40;;;;;;5033632;28;20163;-65
2022/03/22 10:54:15;;;;;;;14.63;12.27;;;22.70;46.20;;;;;;5020727;28;20266;-64
2022/03/22 10:56:53;;;;;;;13.60;12.25;;;22.80;45.90;;;;;;5011387;28;20511;-64
2022/03/22 10:59:23;;;;;;;13.48;11.02;;;22.90;46.10;;;;;;5026179;28;20199;-63
2022/03/22 11:01:50;;;;;;;13.07;11.02;;;23.00;44.30;;;;;;5033213;28;20199;-63
2022/03/22 11:04:17;;;;;;;11.52;10.50;;;23.10;47.50;;;;;;5021406;28;20279;-63
2022/03/22 11:06:49;;;;;;;12.95;11.18;;;23.30;44.20;;;;;;5013260;28;20168;-64
2022/03/22 11:09:20;;;;;;;15.18;12.38;;;23.30;45.30;;;;;;5031071;28;20203;-64
2022/03/22 11:11:46;;;;;;;14.30;11.70;;;23.50;44.90;;;;;;5033142;28;20175;-63
2022/03/22 11:14:14;;;;;;;14.60;11.50;;;23.50;43.40;;;;;;5015503;28;20204;-64
2022/03/22 11:16:42;;;;;;;11.50;10.43;;;23.60;42.50;;;;;;5013010;28;20176;-64
2022/03/22 11:19:09;;;;;;;13.18;11.85;;;24.00;40.50;;;;;;5029130;28;20203;-66
2022/03/22 11:21:38;;;;;;;14.45;10.15;;;23.80;41.10;;;;;;5032860;28;20178;-64
2022/03/22 11:24:12;;;;;;;12.05;10.95;;;23.90;41.30;;;;;;5017634;28;20184;-64
2022/03/22 11:26:46;;;;;;;12.10;10.90;;;24.10;41.00;;;;;;5028772;28;20221;-64
2022/03/22 11:29:15;;;;;;;13.35;12.05;;;23.90;39.00;;;;;;5017352;28;20655;-63
2022/03/22 11:31:42;;;;;;;12.10;10.93;;;24.20;38.30;;;;;;5013081;28;20184;-64
2022/03/22 11:34:09;;;;;;;12.25;10.50;;;24.60;39.10;;;;;;5026943;28;20207;-64
2022/03/22 11:36:48;;;;;;;12.70;11.20;;;24.90;40.60;;;;;;5019665;28;20180;-65
2022/03/22 11:39:19;;;;;;;12.60;11.25;;;25.10;38.40;;;;;;5012751;28;20591;-65
2022/03/22 11:44:36;;;;;;;11.98;10.70;;;25.10;39.90;;;;;;5032679;28;20229;-65
2022/03/22 11:47:16;;;;;;;12.75;10.85;;;25.50;41.30;;;;;;5017522;28;20180;-64
2022/03/22 11:50:01;;;;;;;12.93;10.70;;;25.70;37.60;;;;;;5012731;28;20188;-65
2022/03/22 11:52:36;;;;;;;12.13;10.57;;;25.70;39.00;;;;;;5030190;28;20622;-65
2022/03/22 11:55:09;;;;;;;12.82;11.20;;;26.00;38.90;;;;;;5032010;28;20198;-64
2022/03/22 11:58:10;;;;;;;16.10;12.10;;;26.00;38.40;;;;;;5013982;28;20632;-65
2022/03/22 12:00:55;;;;;;;12.32;11.02;;;25.90;36.60;;;;;;5012639;28;20207;-65
2022/03/22 12:03:25;;;;;;;11.88;10.75;;;26.00;39.30;;;;;;5032221;28;20185;-65
2022/03/22 12:05:52;;;;;;;16.23;12.48;;;26.30;39.00;;;;;;5028485;28;20168;-65
2022/03/22 12:08:18;;;;;;;12.05;10.70;;;26.40;37.80;;;;;;5012498;28;20410;-64
2022/03/22 12:10:54;;;;;;;12.30;11.07;;;26.50;39.40;;;;;;5024714;28;20171;-64
2022/03/22 12:13:21;;;;;;;12.43;11.20;;;26.40;34.70;;;;;;5032025;28;20181;-65
2022/03/22 12:15:54;;;;;;;13.07;11.70;;;26.50;38.70;;;;;;5018941;28;20184;-65
2022/03/22 12:18:20;;;;;;;21.02;12.27;;;26.60;35.80;;;;;;5011954;28;20666;-65
2022/03/22 12:20:45;;;;;;;12.48;10.73;;;26.10;36.80;;;;;;5023523;28;20171;-64
2022/03/22 12:23:11;;;;;;;11.68;10.48;;;26.10;36.60;;;;;;5029195;28;20175;-64
2022/03/22 12:25:37;;;;;;;12.55;11.38;;;26.00;37.60;;;;;;5011510;28;20557;-65
2022/03/22 12:28:08;;;;;;;13.65;11.57;;;26.20;38.40;;;;;;5012064;28;20200;-65
2022/03/22 12:30:37;;;;;;;15.32;11.85;;;26.40;35.40;;;;;;5010613;28;20188;-64
2022/03/22 12:33:10;;;;;;;13.15;11.75;;;25.80;34.90;;;;;;5012071;28;20180;-65
2022/03/22 12:35:36;;;;;;;11.48;10.38;;;25.60;37.00;;;;;;5011562;28;20354;-64
2022/03/22 12:38:02;;;;;;;13.10;11.90;;;25.20;34.10;;;;;;5011787;28;20275;-64
2022/03/22 12:40:28;;;;;;;13.07;11.40;;;25.10;35.80;;;;;;5011443;28;20169;-65
2022/03/22 12:42:55;;;;;;;15.73;11.63;;;25.20;37.70;;;;;;5011822;28;20180;-65
2022/03/22 12:45:23;;;;;;;12.43;11.23;;;25.60;36.90;;;;;;5027932;28;20175;-65
2022/03/22 12:47:49;;;;;;;12.77;11.02;;;25.70;35.50;;;;;;5023985;28;20198;-65
2022/03/22 12:50:16;;;;;;;13.10;11.23;;;25.90;39.60;;;;;;5011717;28;20179;-65
2022/03/22 12:52:43;;;;;;;15.48;10.52;;;26.00;37.10;;;;;;5017189;28;20180;-65
2022/03/22 12:55:10;;;;;;;11.98;10.07;;;25.60;37.20;;;;;;5031254;28;20253;-64
2022/03/22 12:57:40;;;;;;;13.48;9.63;;;25.00;34.40;;;;;;5026552;28;20199;-64
2022/03/22 13:00:07;;;;;;;11.40;9.20;;;24.60;36.90;;;;;;5011660;28;20267;-64
2022/03/22 13:02:36;;;;;;;10.60;9.50;;;24.50;35.00;;;;;;5012633;28;20176;-65
2022/03/22 13:05:02;;;;;;;11.48;9.98;;;24.40;36.50;;;;;;5028723;28;20617;-65
2022/03/22 13:07:27;;;;;;;14.95;9.38;;;24.30;36.00;;;;;;5028531;28;20233;-64